sensor_id;sensor_type;location;lat;lon;timestamp;temperature;humidity
20735;DHT22;10528;52.124;5.196;2023-12-22T00:02:23;7.90;99.90
20735;DHT22;10528;52.124;5.196;2023-12-22T00:04:52;8.00;99.90
20735;DHT22;10528;52.124;5.196;2023-12-22T00:07:19;8.00;99.90
20735;DHT22;10528;52.124;5.196;2023-12-22T00:09:47;8.10;99.90
20735;DHT22;10528;52.124;5.196;2023-12-22T00:12:14;8.10;99.90
20735;DHT22;10528;52.124;5.196;2023-12-22T00:14:41;8.10;99.90
20735;DHT22;10528;52.124;5.196;2023-12-22T00:17:08;8.00;99.90
20735;DHT22;10528;52.124;5.196;2023-12-22T00:19:35;8.00;99.90
20735;DHT22;10528;52.124;5.196;2023-12-22T00:22:02;7.70;99.90
20735;DHT22;10528;52.124;5.196;2023-12-22T00:24:30;7.50;99.90
20735;DHT22;10528;52.124;5.196;2023-12-22T00:26:57;7.30;99.90
20735;DHT22;10528;52.124;5.196;2023-12-22T00:29:24;7.30;99.90
20735;DHT22;10528;52.124;5.196;2023-12-22T00:31:51;7.10;99.90
20735;DHT22;10528;52.124;5.196;2023-12-22T00:34:18;7.10;99.90
20735;DHT22;10528;52.124;5.196;2023-12-22T00:36:46;7.20;99.90
20735;DHT22;10528;52.124;5.196;2023-12-22T00:39:13;7.10;99.90
20735;DHT22;10528;52.124;5.196;2023-12-22T00:41:40;7.10;99.90
20735;DHT22;10528;52.124;5.196;2023-12-22T00:44:07;7.10;99.90
20735;DHT22;10528;52.124;5.196;2023-12-22T00:46:34;7.10;99.90
20735;DHT22;10528;52.124;5.196;2023-12-22T00:49:01;7.20;99.90
20735;DHT22;10528;52.124;5.196;2023-12-22T00:51:27;7.00;99.90
20735;DHT22;10528;52.124;5.196;2023-12-22T00:53:54;7.00;99.90
20735;DHT22;10528;52.124;5.196;2023-12-22T00:56:21;7.00;99.90
20735;DHT22;10528;52.124;5.196;2023-12-22T00:58:48;7.00;99.90
20735;DHT22;10528;52.124;5.196;2023-12-22T01:01:27;7.10;99.90
20735;DHT22;10528;52.124;5.196;2023-12-22T01:03:54;7.10;99.90
20735;DHT22;10528;52.124;5.196;2023-12-22T01:06:21;7.10;99.90
20735;DHT22;10528;52.124;5.196;2023-12-22T01:08:52;7.20;99.90
20735;DHT22;10528;52.124;5.196;2023-12-22T01:11:19;7.20;99.90
20735;DHT22;10528;52.124;5.196;2023-12-22T01:13:46;7.20;99.90
20735;DHT22;10528;52.124;5.196;2023-12-22T01:16:13;7.10;99.90
20735;DHT22;10528;52.124;5.196;2023-12-22T01:18:42;7.20;99.90
20735;DHT22;10528;52.124;5.196;2023-12-22T01:21:11;7.20;99.90
20735;DHT22;10528;52.124;5.196;2023-12-22T01:23:38;7.20;99.90
20735;DHT22;10528;52.124;5.196;2023-12-22T01:26:05;7.30;99.90
20735;DHT22;10528;52.124;5.196;2023-12-22T01:28:36;7.20;99.90
20735;DHT22;10528;52.124;5.196;2023-12-22T01:31:03;7.30;99.90
20735;DHT22;10528;52.124;5.196;2023-12-22T01:33:30;7.20;99.90
20735;DHT22;10528;52.124;5.196;2023-12-22T01:35:57;7.30;99.90
20735;DHT22;10528;52.124;5.196;2023-12-22T01:38:24;7.20;99.90
20735;DHT22;10528;52.124;5.196;2023-12-22T01:40:51;7.30;99.90
20735;DHT22;10528;52.124;5.196;2023-12-22T01:43:18;7.30;99.90
20735;DHT22;10528;52.124;5.196;2023-12-22T01:45:50;7.30;99.90
20735;DHT22;10528;52.124;5.196;2023-12-22T01:48:22;7.20;99.90
20735;DHT22;10528;52.124;5.196;2023-12-22T01:50:51;7.20;99.90
20735;DHT22;10528;52.124;5.196;2023-12-22T01:53:20;7.30;99.90
20735;DHT22;10528;52.124;5.196;2023-12-22T01:55:48;7.30;99.90
20735;DHT22;10528;52.124;5.196;2023-12-22T01:58:18;7.30;99.90
20735;DHT22;10528;52.124;5.196;2023-12-22T02:00:46;7.30;99.90
20735;DHT22;10528;52.124;5.196;2023-12-22T02:03:14;7.30;99.90
20735;DHT22;10528;52.124;5.196;2023-12-22T02:05:46;7.30;99.90
20735;DHT22;10528;52.124;5.196;2023-12-22T02:08:17;7.30;99.90
20735;DHT22;10528;52.124;5.196;2023-12-22T02:10:45;7.30;99.90
20735;DHT22;10528;52.124;5.196;2023-12-22T02:13:12;7.20;99.90
20735;DHT22;10528;52.124;5.196;2023-12-22T02:15:40;7.20;99.90
20735;DHT22;10528;52.124;5.196;2023-12-22T02:18:14;7.20;99.90
20735;DHT22;10528;52.124;5.196;2023-12-22T02:20:45;7.20;99.90
20735;DHT22;10528;52.124;5.196;2023-12-22T02:23:13;7.20;99.90
20735;DHT22;10528;52.124;5.196;2023-12-22T02:25:40;7.20;99.90
20735;DHT22;10528;52.124;5.196;2023-12-22T02:28:08;7.30;99.90
20735;DHT22;10528;52.124;5.196;2023-12-22T02:31:10;7.40;99.90
20735;DHT22;10528;52.124;5.196;2023-12-22T02:33:55;7.30;99.90
20735;DHT22;10528;52.124;5.196;2023-12-22T02:36:25;7.40;99.90
20735;DHT22;10528;52.124;5.196;2023-12-22T02:38:55;7.50;99.90
20735;DHT22;10528;52.124;5.196;2023-12-22T02:41:24;7.50;99.90
20735;DHT22;10528;52.124;5.196;2023-12-22T02:43:51;7.50;99.90
20735;DHT22;10528;52.124;5.196;2023-12-22T02:46:19;7.50;99.90
20735;DHT22;10528;52.124;5.196;2023-12-22T02:48:46;7.50;99.90
20735;DHT22;10528;52.124;5.196;2023-12-22T02:51:13;7.50;99.90
20735;DHT22;10528;52.124;5.196;2023-12-22T02:53:40;7.60;99.90
20735;DHT22;10528;52.124;5.196;2023-12-22T02:56:07;7.60;99.90
20735;DHT22;10528;52.124;5.196;2023-12-22T02:58:33;7.70;99.90
20735;DHT22;10528;52.124;5.196;2023-12-22T03:01:00;7.70;99.90
20735;DHT22;10528;52.124;5.196;2023-12-22T03:03:27;7.80;99.90
20735;DHT22;10528;52.124;5.196;2023-12-22T03:05:54;7.80;99.90
20735;DHT22;10528;52.124;5.196;2023-12-22T03:08:21;7.80;99.90
20735;DHT22;10528;52.124;5.196;2023-12-22T03:10:48;7.80;99.90
20735;DHT22;10528;52.124;5.196;2023-12-22T03:13:15;7.90;99.90
20735;DHT22;10528;52.124;5.196;2023-12-22T03:15:42;7.90;99.90
20735;DHT22;10528;52.124;5.196;2023-12-22T03:18:09;7.90;99.90
20735;DHT22;10528;52.124;5.196;2023-12-22T03:20:36;7.80;99.90
20735;DHT22;10528;52.124;5.196;2023-12-22T03:23:03;7.80;99.90
20735;DHT22;10528;52.124;5.196;2023-12-22T03:25:30;7.90;99.90
20735;DHT22;10528;52.124;5.196;2023-12-22T03:27:57;7.80;99.90
20735;DHT22;10528;52.124;5.196;2023-12-22T03:30:23;7.90;99.90
20735;DHT22;10528;52.124;5.196;2023-12-22T03:32:51;7.90;99.90
20735;DHT22;10528;52.124;5.196;2023-12-22T03:35:18;7.90;99.90
20735;DHT22;10528;52.124;5.196;2023-12-22T03:37:45;7.90;99.90
20735;DHT22;10528;52.124;5.196;2023-12-22T03:40:12;7.90;99.90
20735;DHT22;10528;52.124;5.196;2023-12-22T03:42:39;8.10;99.90
20735;DHT22;10528;52.124;5.196;2023-12-22T03:45:06;8.20;99.90
20735;DHT22;10528;52.124;5.196;2023-12-22T03:47:33;8.20;99.90
20735;DHT22;10528;52.124;5.196;2023-12-22T03:50:00;8.20;99.90
20735;DHT22;10528;52.124;5.196;2023-12-22T03:52:27;8.30;99.90
20735;DHT22;10528;52.124;5.196;2023-12-22T03:54:54;8.30;99.90
20735;DHT22;10528;52.124;5.196;2023-12-22T03:57:21;8.40;99.90
20735;DHT22;10528;52.124;5.196;2023-12-22T03:59:48;8.40;99.90
20735;DHT22;10528;52.124;5.196;2023-12-22T04:02:14;8.40;99.90
20735;DHT22;10528;52.124;5.196;2023-12-22T04:04:41;8.40;99.90
20735;DHT22;10528;52.124;5.196;2023-12-22T04:07:08;8.50;99.90
20735;DHT22;10528;52.124;5.196;2023-12-22T04:09:37;8.40;99.90
20735;DHT22;10528;52.124;5.196;2023-12-22T04:12:05;8.40;99.90
20735;DHT22;10528;52.124;5.196;2023-12-22T04:14:32;8.30;99.90
20735;DHT22;10528;52.124;5.196;2023-12-22T04:16:59;8.30;99.90
20735;DHT22;10528;52.124;5.196;2023-12-22T04:19:26;8.30;99.90
20735;DHT22;10528;52.124;5.196;2023-12-22T04:21:53;8.30;99.90
20735;DHT22;10528;52.124;5.196;2023-12-22T04:24:20;8.30;99.90
20735;DHT22;10528;52.124;5.196;2023-12-22T04:26:47;8.30;99.90
20735;DHT22;10528;52.124;5.196;2023-12-22T04:29:14;8.40;99.90
20735;DHT22;10528;52.124;5.196;2023-12-22T04:31:43;8.40;99.90
20735;DHT22;10528;52.124;5.196;2023-12-22T04:34:14;8.40;99.90
20735;DHT22;10528;52.124;5.196;2023-12-22T04:36:42;8.40;99.90
20735;DHT22;10528;52.124;5.196;2023-12-22T04:39:09;8.50;99.90
20735;DHT22;10528;52.124;5.196;2023-12-22T04:41:36;8.50;99.90
20735;DHT22;10528;52.124;5.196;2023-12-22T04:44:03;8.50;99.90
20735;DHT22;10528;52.124;5.196;2023-12-22T04:46:30;8.60;99.90
20735;DHT22;10528;52.124;5.196;2023-12-22T04:48:57;8.60;99.90
20735;DHT22;10528;52.124;5.196;2023-12-22T04:51:24;8.70;99.90
20735;DHT22;10528;52.124;5.196;2023-12-22T04:53:51;8.60;99.90
20735;DHT22;10528;52.124;5.196;2023-12-22T04:56:18;8.70;99.90
20735;DHT22;10528;52.124;5.196;2023-12-22T04:58:45;8.80;99.90
20735;DHT22;10528;52.124;5.196;2023-12-22T05:01:12;8.70;99.90
20735;DHT22;10528;52.124;5.196;2023-12-22T05:03:39;8.70;99.90
20735;DHT22;10528;52.124;5.196;2023-12-22T05:06:06;8.80;99.90
20735;DHT22;10528;52.124;5.196;2023-12-22T05:08:33;8.80;99.90
20735;DHT22;10528;52.124;5.196;2023-12-22T05:11:00;8.80;99.90
20735;DHT22;10528;52.124;5.196;2023-12-22T05:13:27;8.80;99.90
20735;DHT22;10528;52.124;5.196;2023-12-22T05:15:54;8.70;99.90
20735;DHT22;10528;52.124;5.196;2023-12-22T05:18:21;8.80;99.90
20735;DHT22;10528;52.124;5.196;2023-12-22T05:20:48;8.80;99.90
20735;DHT22;10528;52.124;5.196;2023-12-22T05:23:16;8.80;99.90
20735;DHT22;10528;52.124;5.196;2023-12-22T05:25:42;8.90;99.90
20735;DHT22;10528;52.124;5.196;2023-12-22T05:28:09;8.90;99.90
20735;DHT22;10528;52.124;5.196;2023-12-22T05:30:37;9.00;99.90
20735;DHT22;10528;52.124;5.196;2023-12-22T05:33:04;8.90;99.90
20735;DHT22;10528;52.124;5.196;2023-12-22T05:35:31;8.90;99.90
20735;DHT22;10528;52.124;5.196;2023-12-22T05:37:58;8.90;99.90
20735;DHT22;10528;52.124;5.196;2023-12-22T05:40:25;8.90;99.90
20735;DHT22;10528;52.124;5.196;2023-12-22T05:42:52;8.90;99.90
20735;DHT22;10528;52.124;5.196;2023-12-22T05:45:18;9.00;99.90
20735;DHT22;10528;52.124;5.196;2023-12-22T05:47:45;9.00;99.90
20735;DHT22;10528;52.124;5.196;2023-12-22T05:50:13;8.90;99.90
20735;DHT22;10528;52.124;5.196;2023-12-22T05:52:40;8.90;99.90
20735;DHT22;10528;52.124;5.196;2023-12-22T05:55:08;9.00;99.90
20735;DHT22;10528;52.124;5.196;2023-12-22T05:57:35;9.10;99.90
20735;DHT22;10528;52.124;5.196;2023-12-22T06:00:03;9.10;99.90
20735;DHT22;10528;52.124;5.196;2023-12-22T06:02:34;9.10;99.90
20735;DHT22;10528;52.124;5.196;2023-12-22T06:05:01;9.10;99.90
20735;DHT22;10528;52.124;5.196;2023-12-22T06:07:28;9.20;99.90
20735;DHT22;10528;52.124;5.196;2023-12-22T06:09:55;9.10;99.90
20735;DHT22;10528;52.124;5.196;2023-12-22T06:12:22;9.20;99.90
20735;DHT22;10528;52.124;5.196;2023-12-22T06:14:49;9.10;99.90
20735;DHT22;10528;52.124;5.196;2023-12-22T06:17:16;9.20;99.90
20735;DHT22;10528;52.124;5.196;2023-12-22T06:19:43;9.20;99.90
20735;DHT22;10528;52.124;5.196;2023-12-22T06:22:10;9.20;99.90
20735;DHT22;10528;52.124;5.196;2023-12-22T06:24:36;9.20;99.90
20735;DHT22;10528;52.124;5.196;2023-12-22T06:27:04;9.20;99.90
20735;DHT22;10528;52.124;5.196;2023-12-22T06:29:33;9.10;99.90
20735;DHT22;10528;52.124;5.196;2023-12-22T06:32:00;9.10;99.90
20735;DHT22;10528;52.124;5.196;2023-12-22T06:34:27;9.20;99.90
20735;DHT22;10528;52.124;5.196;2023-12-22T06:36:54;9.20;99.90
20735;DHT22;10528;52.124;5.196;2023-12-22T06:39:21;9.20;99.90
20735;DHT22;10528;52.124;5.196;2023-12-22T06:41:48;9.20;99.90
20735;DHT22;10528;52.124;5.196;2023-12-22T06:44:15;9.20;99.90
20735;DHT22;10528;52.124;5.196;2023-12-22T06:46:42;9.30;99.90
20735;DHT22;10528;52.124;5.196;2023-12-22T06:49:09;9.30;99.90
20735;DHT22;10528;52.124;5.196;2023-12-22T06:51:36;9.30;99.90
20735;DHT22;10528;52.124;5.196;2023-12-22T06:54:04;9.40;99.90
20735;DHT22;10528;52.124;5.196;2023-12-22T06:56:35;9.60;99.90
20735;DHT22;10528;52.124;5.196;2023-12-22T06:59:02;9.60;99.90
20735;DHT22;10528;52.124;5.196;2023-12-22T07:01:35;9.70;99.90
20735;DHT22;10528;52.124;5.196;2023-12-22T07:04:04;9.80;99.90
20735;DHT22;10528;52.124;5.196;2023-12-22T07:06:33;9.90;99.90
20735;DHT22;10528;52.124;5.196;2023-12-22T07:11:50;10.10;99.90
20735;DHT22;10528;52.124;5.196;2023-12-22T07:14:19;9.90;99.90
20735;DHT22;10528;52.124;5.196;2023-12-22T07:16:46;9.90;99.90
20735;DHT22;10528;52.124;5.196;2023-12-22T07:19:13;9.80;99.90
20735;DHT22;10528;52.124;5.196;2023-12-22T07:21:41;9.90;99.90
20735;DHT22;10528;52.124;5.196;2023-12-22T07:24:11;9.90;99.90
20735;DHT22;10528;52.124;5.196;2023-12-22T07:26:41;10.20;99.90
20735;DHT22;10528;52.124;5.196;2023-12-22T07:29:08;10.10;99.90
20735;DHT22;10528;52.124;5.196;2023-12-22T07:31:36;10.20;99.90
20735;DHT22;10528;52.124;5.196;2023-12-22T07:34:03;10.30;99.90
20735;DHT22;10528;52.124;5.196;2023-12-22T07:36:30;10.40;99.90
20735;DHT22;10528;52.124;5.196;2023-12-22T07:38:57;10.10;99.90
20735;DHT22;10528;52.124;5.196;2023-12-22T07:41:25;9.80;99.90
20735;DHT22;10528;52.124;5.196;2023-12-22T07:43:53;9.70;99.90
20735;DHT22;10528;52.124;5.196;2023-12-22T07:46:20;9.80;99.90
20735;DHT22;10528;52.124;5.196;2023-12-22T07:48:49;9.80;99.90
20735;DHT22;10528;52.124;5.196;2023-12-22T07:51:18;9.80;99.90
20735;DHT22;10528;52.124;5.196;2023-12-22T07:53:45;9.80;99.90
20735;DHT22;10528;52.124;5.196;2023-12-22T07:56:12;10.10;99.90
20735;DHT22;10528;52.124;5.196;2023-12-22T07:58:39;10.20;99.90
20735;DHT22;10528;52.124;5.196;2023-12-22T08:01:06;10.10;99.90
20735;DHT22;10528;52.124;5.196;2023-12-22T08:03:34;10.00;99.90
20735;DHT22;10528;52.124;5.196;2023-12-22T08:06:01;9.70;99.90
20735;DHT22;10528;52.124;5.196;2023-12-22T08:08:28;9.60;99.90
20735;DHT22;10528;52.124;5.196;2023-12-22T08:10:55;9.50;99.90
20735;DHT22;10528;52.124;5.196;2023-12-22T08:13:23;9.50;99.90
20735;DHT22;10528;52.124;5.196;2023-12-22T08:15:50;9.50;99.90
20735;DHT22;10528;52.124;5.196;2023-12-22T08:18:17;9.40;99.90
20735;DHT22;10528;52.124;5.196;2023-12-22T08:20:44;9.30;99.90
20735;DHT22;10528;52.124;5.196;2023-12-22T08:23:14;9.20;99.90
20735;DHT22;10528;52.124;5.196;2023-12-22T08:25:42;9.20;99.90
20735;DHT22;10528;52.124;5.196;2023-12-22T08:28:11;9.10;99.90
20735;DHT22;10528;52.124;5.196;2023-12-22T08:30:40;9.00;99.90
20735;DHT22;10528;52.124;5.196;2023-12-22T08:33:07;8.90;99.90
20735;DHT22;10528;52.124;5.196;2023-12-22T08:35:34;9.00;99.90
20735;DHT22;10528;52.124;5.196;2023-12-22T08:38:02;9.00;99.90
20735;DHT22;10528;52.124;5.196;2023-12-22T08:40:30;9.00;99.90
20735;DHT22;10528;52.124;5.196;2023-12-22T08:42:57;9.00;99.90
20735;DHT22;10528;52.124;5.196;2023-12-22T08:45:28;9.00;99.90
20735;DHT22;10528;52.124;5.196;2023-12-22T08:47:56;9.10;99.90
20735;DHT22;10528;52.124;5.196;2023-12-22T08:50:24;9.20;99.90
20735;DHT22;10528;52.124;5.196;2023-12-22T08:52:51;9.20;99.90
20735;DHT22;10528;52.124;5.196;2023-12-22T08:55:19;9.30;99.90
20735;DHT22;10528;52.124;5.196;2023-12-22T08:57:46;9.50;99.90
20735;DHT22;10528;52.124;5.196;2023-12-22T09:00:25;9.60;99.90
20735;DHT22;10528;52.124;5.196;2023-12-22T09:02:52;9.60;99.90
20735;DHT22;10528;52.124;5.196;2023-12-22T09:05:21;9.70;99.90
20735;DHT22;10528;52.124;5.196;2023-12-22T09:07:48;9.50;99.90
20735;DHT22;10528;52.124;5.196;2023-12-22T09:10:16;9.60;99.90
20735;DHT22;10528;52.124;5.196;2023-12-22T09:12:43;9.30;99.90
20735;DHT22;10528;52.124;5.196;2023-12-22T09:15:10;9.20;99.90
20735;DHT22;10528;52.124;5.196;2023-12-22T09:17:37;9.20;99.90
20735;DHT22;10528;52.124;5.196;2023-12-22T09:20:05;9.20;99.90
20735;DHT22;10528;52.124;5.196;2023-12-22T09:22:32;9.20;99.90
20735;DHT22;10528;52.124;5.196;2023-12-22T09:25:00;9.30;99.90
20735;DHT22;10528;52.124;5.196;2023-12-22T09:27:27;9.40;99.90
20735;DHT22;10528;52.124;5.196;2023-12-22T09:29:57;9.50;99.90
20735;DHT22;10528;52.124;5.196;2023-12-22T09:32:24;9.60;99.90
20735;DHT22;10528;52.124;5.196;2023-12-22T09:34:51;9.60;99.90
20735;DHT22;10528;52.124;5.196;2023-12-22T09:37:19;9.60;99.90
20735;DHT22;10528;52.124;5.196;2023-12-22T09:39:46;9.70;99.90
20735;DHT22;10528;52.124;5.196;2023-12-22T09:42:13;9.70;99.90
20735;DHT22;10528;52.124;5.196;2023-12-22T09:44:42;9.70;99.90
20735;DHT22;10528;52.124;5.196;2023-12-22T09:47:10;9.70;99.90
20735;DHT22;10528;52.124;5.196;2023-12-22T09:49:40;9.70;99.90
20735;DHT22;10528;52.124;5.196;2023-12-22T09:52:08;9.90;99.90
20735;DHT22;10528;52.124;5.196;2023-12-22T09:54:37;9.90;99.90
20735;DHT22;10528;52.124;5.196;2023-12-22T09:57:05;9.80;99.90
20735;DHT22;10528;52.124;5.196;2023-12-22T09:59:49;9.90;99.90
20735;DHT22;10528;52.124;5.196;2023-12-22T10:02:19;9.90;99.90
20735;DHT22;10528;52.124;5.196;2023-12-22T10:04:46;10.10;99.90
20735;DHT22;10528;52.124;5.196;2023-12-22T10:07:17;10.20;99.90
20735;DHT22;10528;52.124;5.196;2023-12-22T10:09:44;10.20;99.90
20735;DHT22;10528;52.124;5.196;2023-12-22T10:12:14;10.30;99.90
20735;DHT22;10528;52.124;5.196;2023-12-22T10:14:42;10.20;99.90
20735;DHT22;10528;52.124;5.196;2023-12-22T10:17:10;10.30;99.90
20735;DHT22;10528;52.124;5.196;2023-12-22T10:19:38;10.30;99.90
20735;DHT22;10528;52.124;5.196;2023-12-22T10:22:06;10.20;99.90
20735;DHT22;10528;52.124;5.196;2023-12-22T10:24:44;10.30;99.90
20735;DHT22;10528;52.124;5.196;2023-12-22T10:27:15;10.30;99.90
20735;DHT22;10528;52.124;5.196;2023-12-22T10:29:56;10.30;99.90
20735;DHT22;10528;52.124;5.196;2023-12-22T10:32:23;10.30;99.90
20735;DHT22;10528;52.124;5.196;2023-12-22T10:34:53;10.30;99.90
20735;DHT22;10528;52.124;5.196;2023-12-22T10:37:21;10.30;99.90
20735;DHT22;10528;52.124;5.196;2023-12-22T10:39:52;10.40;99.90
20735;DHT22;10528;52.124;5.196;2023-12-22T10:42:20;10.30;99.90
20735;DHT22;10528;52.124;5.196;2023-12-22T10:44:48;10.30;99.90
20735;DHT22;10528;52.124;5.196;2023-12-22T10:47:18;10.30;99.90
20735;DHT22;10528;52.124;5.196;2023-12-22T10:49:48;10.40;99.90
20735;DHT22;10528;52.124;5.196;2023-12-22T10:52:16;10.40;99.90
20735;DHT22;10528;52.124;5.196;2023-12-22T10:54:44;10.40;99.90
20735;DHT22;10528;52.124;5.196;2023-12-22T10:57:12;10.30;99.90
20735;DHT22;10528;52.124;5.196;2023-12-22T10:59:45;10.40;99.90
20735;DHT22;10528;52.124;5.196;2023-12-22T11:02:28;10.40;99.90
20735;DHT22;10528;52.124;5.196;2023-12-22T11:05:05;10.40;99.90
20735;DHT22;10528;52.124;5.196;2023-12-22T11:07:35;10.40;99.90
20735;DHT22;10528;52.124;5.196;2023-12-22T11:10:05;10.40;99.90
20735;DHT22;10528;52.124;5.196;2023-12-22T11:12:38;10.30;99.90
20735;DHT22;10528;52.124;5.196;2023-12-22T11:15:06;10.20;99.90
20735;DHT22;10528;52.124;5.196;2023-12-22T11:17:35;10.20;99.90
20735;DHT22;10528;52.124;5.196;2023-12-22T11:20:09;10.20;99.90
20735;DHT22;10528;52.124;5.196;2023-12-22T11:22:38;10.30;99.90
20735;DHT22;10528;52.124;5.196;2023-12-22T11:25:08;10.30;99.90
20735;DHT22;10528;52.124;5.196;2023-12-22T11:27:38;10.40;99.90
20735;DHT22;10528;52.124;5.196;2023-12-22T11:30:06;10.40;99.90
20735;DHT22;10528;52.124;5.196;2023-12-22T11:32:35;10.50;99.90
20735;DHT22;10528;52.124;5.196;2023-12-22T11:35:03;10.50;99.90
20735;DHT22;10528;52.124;5.196;2023-12-22T11:37:35;10.50;99.90
20735;DHT22;10528;52.124;5.196;2023-12-22T11:40:03;10.50;99.90
20735;DHT22;10528;52.124;5.196;2023-12-22T11:42:38;10.40;99.90
20735;DHT22;10528;52.124;5.196;2023-12-22T11:45:14;10.40;99.90
20735;DHT22;10528;52.124;5.196;2023-12-22T11:47:43;10.40;99.90
20735;DHT22;10528;52.124;5.196;2023-12-22T11:50:12;10.40;99.90
20735;DHT22;10528;52.124;5.196;2023-12-22T11:52:52;10.50;99.90
20735;DHT22;10528;52.124;5.196;2023-12-22T11:58:42;10.50;99.90
20735;DHT22;10528;52.124;5.196;2023-12-22T12:01:14;10.60;99.90
20735;DHT22;10528;52.124;5.196;2023-12-22T12:03:49;10.50;99.90
20735;DHT22;10528;52.124;5.196;2023-12-22T12:08:54;10.60;99.90
20735;DHT22;10528;52.124;5.196;2023-12-22T12:11:23;10.60;99.90
20735;DHT22;10528;52.124;5.196;2023-12-22T12:14:14;10.70;99.90
20735;DHT22;10528;52.124;5.196;2023-12-22T12:16:42;10.80;99.90
20735;DHT22;10528;52.124;5.196;2023-12-22T12:19:09;10.80;99.90
20735;DHT22;10528;52.124;5.196;2023-12-22T12:21:40;10.80;99.90
20735;DHT22;10528;52.124;5.196;2023-12-22T12:24:08;11.00;99.90
20735;DHT22;10528;52.124;5.196;2023-12-22T12:26:36;11.00;99.90
20735;DHT22;10528;52.124;5.196;2023-12-22T12:29:03;10.90;99.90
20735;DHT22;10528;52.124;5.196;2023-12-22T12:31:37;10.90;99.90
20735;DHT22;10528;52.124;5.196;2023-12-22T12:34:05;10.80;99.90
20735;DHT22;10528;52.124;5.196;2023-12-22T12:36:32;11.00;99.90
20735;DHT22;10528;52.124;5.196;2023-12-22T12:39:09;10.90;99.90
20735;DHT22;10528;52.124;5.196;2023-12-22T12:41:42;10.90;99.90
20735;DHT22;10528;52.124;5.196;2023-12-22T12:44:13;10.90;99.90
20735;DHT22;10528;52.124;5.196;2023-12-22T12:46:41;10.90;99.90
20735;DHT22;10528;52.124;5.196;2023-12-22T12:49:10;10.90;99.90
20735;DHT22;10528;52.124;5.196;2023-12-22T12:51:40;10.90;99.90
20735;DHT22;10528;52.124;5.196;2023-12-22T12:54:10;10.90;99.90
20735;DHT22;10528;52.124;5.196;2023-12-22T12:56:42;10.90;99.90
20735;DHT22;10528;52.124;5.196;2023-12-22T12:59:15;11.00;99.90
20735;DHT22;10528;52.124;5.196;2023-12-22T13:01:46;11.00;99.90
20735;DHT22;10528;52.124;5.196;2023-12-22T13:04:15;11.00;99.90
20735;DHT22;10528;52.124;5.196;2023-12-22T13:06:46;11.00;99.90
20735;DHT22;10528;52.124;5.196;2023-12-22T13:09:14;11.10;99.90
20735;DHT22;10528;52.124;5.196;2023-12-22T13:11:43;11.00;99.90
20735;DHT22;10528;52.124;5.196;2023-12-22T13:14:21;11.00;99.90
20735;DHT22;10528;52.124;5.196;2023-12-22T13:16:52;11.00;99.90
20735;DHT22;10528;52.124;5.196;2023-12-22T13:19:25;11.00;99.90
20735;DHT22;10528;52.124;5.196;2023-12-22T13:21:54;11.00;99.90
20735;DHT22;10528;52.124;5.196;2023-12-22T13:24:21;11.10;99.90
20735;DHT22;10528;52.124;5.196;2023-12-22T13:27:07;11.20;99.90
20735;DHT22;10528;52.124;5.196;2023-12-22T13:29:45;11.10;99.90
20735;DHT22;10528;52.124;5.196;2023-12-22T13:32:16;11.10;99.90
20735;DHT22;10528;52.124;5.196;2023-12-22T13:34:54;11.10;99.90
20735;DHT22;10528;52.124;5.196;2023-12-22T13:37:22;11.10;99.90
20735;DHT22;10528;52.124;5.196;2023-12-22T13:39:53;11.10;99.90
20735;DHT22;10528;52.124;5.196;2023-12-22T13:42:20;11.10;99.90
20735;DHT22;10528;52.124;5.196;2023-12-22T13:44:49;11.20;99.90
20735;DHT22;10528;52.124;5.196;2023-12-22T13:47:19;11.10;99.90
20735;DHT22;10528;52.124;5.196;2023-12-22T13:49:47;11.10;99.90
20735;DHT22;10528;52.124;5.196;2023-12-22T13:52:44;11.30;99.90
20735;DHT22;10528;52.124;5.196;2023-12-22T13:55:13;11.20;99.90
20735;DHT22;10528;52.124;5.196;2023-12-22T13:57:41;11.20;99.90
20735;DHT22;10528;52.124;5.196;2023-12-22T14:02:48;11.20;99.90
20735;DHT22;10528;52.124;5.196;2023-12-22T14:05:16;11.20;99.90
20735;DHT22;10528;52.124;5.196;2023-12-22T14:07:44;11.10;99.90
20735;DHT22;10528;52.124;5.196;2023-12-22T14:10:11;11.20;99.90
20735;DHT22;10528;52.124;5.196;2023-12-22T14:12:40;11.20;99.90
20735;DHT22;10528;52.124;5.196;2023-12-22T14:15:11;11.10;99.90
20735;DHT22;10528;52.124;5.196;2023-12-22T14:17:39;11.10;99.90
20735;DHT22;10528;52.124;5.196;2023-12-22T14:20:09;11.20;99.90
20735;DHT22;10528;52.124;5.196;2023-12-22T14:22:37;11.10;99.90
20735;DHT22;10528;52.124;5.196;2023-12-22T14:25:05;11.20;99.90
20735;DHT22;10528;52.124;5.196;2023-12-22T14:27:33;11.20;99.90
20735;DHT22;10528;52.124;5.196;2023-12-22T14:30:00;11.20;99.90
20735;DHT22;10528;52.124;5.196;2023-12-22T14:32:27;11.10;99.90
20735;DHT22;10528;52.124;5.196;2023-12-22T14:34:56;11.10;99.90
20735;DHT22;10528;52.124;5.196;2023-12-22T14:37:23;11.10;99.90
20735;DHT22;10528;52.124;5.196;2023-12-22T14:39:50;11.10;99.90
20735;DHT22;10528;52.124;5.196;2023-12-22T14:42:18;11.20;99.90
20735;DHT22;10528;52.124;5.196;2023-12-22T14:44:45;11.10;99.90
20735;DHT22;10528;52.124;5.196;2023-12-22T14:47:12;11.10;99.90
20735;DHT22;10528;52.124;5.196;2023-12-22T14:49:40;11.00;99.90
20735;DHT22;10528;52.124;5.196;2023-12-22T14:52:07;10.90;99.90
20735;DHT22;10528;52.124;5.196;2023-12-22T14:54:35;10.90;99.90
20735;DHT22;10528;52.124;5.196;2023-12-22T14:57:02;10.80;99.90
20735;DHT22;10528;52.124;5.196;2023-12-22T14:59:29;10.80;99.90
20735;DHT22;10528;52.124;5.196;2023-12-22T15:01:56;10.90;99.90
20735;DHT22;10528;52.124;5.196;2023-12-22T15:04:23;10.90;99.90
20735;DHT22;10528;52.124;5.196;2023-12-22T15:06:51;10.80;99.90
20735;DHT22;10528;52.124;5.196;2023-12-22T15:09:27;10.80;99.90
20735;DHT22;10528;52.124;5.196;2023-12-22T15:11:55;10.90;99.90
20735;DHT22;10528;52.124;5.196;2023-12-22T15:14:23;10.90;99.90
20735;DHT22;10528;52.124;5.196;2023-12-22T15:16:50;10.90;99.90
20735;DHT22;10528;52.124;5.196;2023-12-22T15:19:20;10.90;99.90
20735;DHT22;10528;52.124;5.196;2023-12-22T15:21:47;10.80;99.90
20735;DHT22;10528;52.124;5.196;2023-12-22T15:24:15;10.80;99.90
20735;DHT22;10528;52.124;5.196;2023-12-22T15:26:42;10.80;99.90
20735;DHT22;10528;52.124;5.196;2023-12-22T15:29:09;10.80;99.90
20735;DHT22;10528;52.124;5.196;2023-12-22T15:31:36;10.70;99.90
20735;DHT22;10528;52.124;5.196;2023-12-22T15:34:04;10.70;99.90
20735;DHT22;10528;52.124;5.196;2023-12-22T15:36:33;10.70;99.90
20735;DHT22;10528;52.124;5.196;2023-12-22T15:39:01;10.60;99.90
20735;DHT22;10528;52.124;5.196;2023-12-22T15:41:29;10.70;99.90
20735;DHT22;10528;52.124;5.196;2023-12-22T15:43:59;10.70;99.90
20735;DHT22;10528;52.124;5.196;2023-12-22T15:46:26;10.80;99.90
20735;DHT22;10528;52.124;5.196;2023-12-22T15:48:53;10.70;99.90
20735;DHT22;10528;52.124;5.196;2023-12-22T15:51:21;10.70;99.90
20735;DHT22;10528;52.124;5.196;2023-12-22T15:53:48;10.80;99.90
20735;DHT22;10528;52.124;5.196;2023-12-22T15:56:15;10.80;99.90
20735;DHT22;10528;52.124;5.196;2023-12-22T15:58:44;10.90;99.90
20735;DHT22;10528;52.124;5.196;2023-12-22T16:01:12;10.90;99.90